createdAt,value
2018-02-12T00:02:13.004Z,3.50
2018-02-12T00:04:41.052Z,3.50
2018-02-12T00:07:09.334Z,3.50
2018-02-12T00:09:36.822Z,3.50
2018-02-12T00:12:04.292Z,3.50
2018-02-12T00:14:31.759Z,3.40
2018-02-12T00:16:59.238Z,3.30
2018-02-12T00:19:27.471Z,3.20
2018-02-12T00:21:54.954Z,3.20
2018-02-12T00:24:22.451Z,3.20
2018-02-12T00:26:49.993Z,3.20
2018-02-12T00:29:17.412Z,3.20
2018-02-12T00:31:44.920Z,3.20
2018-02-12T00:34:13.163Z,3.30
2018-02-12T00:36:41.416Z,3.30
2018-02-12T00:39:08.940Z,3.30
2018-02-12T00:41:36.415Z,3.30
2018-02-12T00:44:03.901Z,3.20
2018-02-12T00:46:31.381Z,3.10
2018-02-12T00:48:59.672Z,3.10
2018-02-12T00:51:27.287Z,3.00
2018-02-12T00:53:54.778Z,3.00
2018-02-12T00:56:23.785Z,2.90
2018-02-12T00:58:52.077Z,2.90
2018-02-12T01:01:19.579Z,2.80
2018-02-12T01:03:47.646Z,2.80
2018-02-12T01:06:15.139Z,2.80
2018-02-12T01:08:43.462Z,2.70
2018-02-12T01:11:11.959Z,2.70
2018-02-12T01:13:39.434Z,2.80
2018-02-12T01:16:07.661Z,2.80
2018-02-12T01:18:35.131Z,2.90
2018-02-12T01:21:02.642Z,2.90
2018-02-12T01:23:30.351Z,2.90
2018-02-12T01:25:57.830Z,2.90
2018-02-12T01:28:26.163Z,2.90
2018-02-12T01:30:53.649Z,2.80
2018-02-12T01:33:21.158Z,2.80
2018-02-12T01:35:49.395Z,2.80
2018-02-12T01:38:16.935Z,2.80
2018-02-12T01:40:44.410Z,2.80
2018-02-12T01:43:12.801Z,2.90
2018-02-12T01:45:40.321Z,2.90
2018-02-12T01:54:53.249Z,3.00
2018-02-12T01:57:22.289Z,3.00
2018-02-12T01:59:50.702Z,3.00
2018-02-12T02:02:18.717Z,2.90
2018-02-12T02:04:46.249Z,2.90
2018-02-12T02:07:14.482Z,2.80
2018-02-12T02:09:41.979Z,2.80
2018-02-12T02:12:10.213Z,2.80
2018-02-12T02:14:37.703Z,2.80
2018-02-12T02:17:05.949Z,2.70
2018-02-12T02:19:33.431Z,2.70
2018-02-12T02:22:01.605Z,2.80
2018-02-12T02:24:29.161Z,2.70
2018-02-12T02:26:58.276Z,2.70
2018-02-12T02:29:25.795Z,2.70
2018-02-12T02:31:53.435Z,2.70
2018-02-12T02:34:22.104Z,2.70
2018-02-12T02:36:51.270Z,2.80
2018-02-12T02:39:19.578Z,2.70
2018-02-12T02:41:47.082Z,2.70
2018-02-12T02:44:15.523Z,2.80
2018-02-12T02:46:43.033Z,2.90
2018-02-12T02:49:10.482Z,2.90
2018-02-12T02:51:37.987Z,2.80
2018-02-12T02:54:05.469Z,2.90
2018-02-12T02:56:32.971Z,2.90
2018-02-12T02:59:01.207Z,3.00
2018-02-12T03:01:28.701Z,3.00
2018-02-12T03:03:57.576Z,3.00
2018-02-12T03:06:25.822Z,3.00
2018-02-12T03:08:53.391Z,3.00
2018-02-12T03:11:21.875Z,3.00
2018-02-12T03:13:49.363Z,3.00
2018-02-12T03:16:17.659Z,2.80
2018-02-12T03:18:45.161Z,2.90
2018-02-12T03:21:12.627Z,2.80
2018-02-12T03:23:40.127Z,2.70
2018-02-12T03:26:07.645Z,2.70
2018-02-12T03:28:35.128Z,2.70
2018-02-12T03:31:03.391Z,2.80
2018-02-12T03:33:31.266Z,2.80
2018-02-12T03:35:59.534Z,2.90
2018-02-12T03:38:27.010Z,2.90
2018-02-12T03:40:54.718Z,2.90
2018-02-12T03:43:23.071Z,2.90
2018-02-12T03:45:53.184Z,2.90
2018-02-12T03:48:20.685Z,2.80
2018-02-12T03:50:48.163Z,2.80
2018-02-12T03:53:16.405Z,2.70
2018-02-12T03:55:43.908Z,2.70
2018-02-12T03:58:12.193Z,2.70
2018-02-12T04:00:40.433Z,2.60
2018-02-12T04:03:08.021Z,2.60
2018-02-12T04:05:35.626Z,2.60
2018-02-12T04:08:03.101Z,2.50
2018-02-12T04:10:31.342Z,2.40
2018-02-12T04:12:58.823Z,2.40
2018-02-12T04:15:26.300Z,2.40
2018-02-12T04:17:53.855Z,2.40
2018-02-12T04:20:21.366Z,2.40
2018-02-12T04:22:48.842Z,2.40
2018-02-12T04:25:16.329Z,2.50
2018-02-12T04:27:43.817Z,2.50
2018-02-12T04:30:12.338Z,2.50
2018-02-12T04:32:39.809Z,2.50
2018-02-12T04:35:07.333Z,2.60
2018-02-12T04:37:34.826Z,2.60
2018-02-12T04:40:13.886Z,2.70
2018-02-12T04:42:41.377Z,2.70
2018-02-12T04:45:08.855Z,2.70
2018-02-12T04:47:36.369Z,2.70
2018-02-12T04:50:04.661Z,2.60
2018-02-12T04:52:32.752Z,2.60
2018-02-12T04:55:00.282Z,2.60
2018-02-12T04:57:27.806Z,2.60
2018-02-12T04:59:55.272Z,2.70
2018-02-12T05:02:22.754Z,2.70
2018-02-12T05:04:50.210Z,2.70
2018-02-12T05:07:18.445Z,2.70
2018-02-12T05:09:45.955Z,2.70
2018-02-12T05:12:14.091Z,2.60
2018-02-12T05:14:41.623Z,2.60
2018-02-12T05:17:09.090Z,2.60
2018-02-12T05:19:36.574Z,2.60
2018-02-12T05:22:04.841Z,2.50
2018-02-12T05:24:32.311Z,2.50
2018-02-12T05:27:01.170Z,2.40
2018-02-12T05:29:28.866Z,2.40
2018-02-12T05:31:57.097Z,2.40
2018-02-12T05:34:24.590Z,2.40
2018-02-12T05:36:52.095Z,2.40
2018-02-12T05:39:19.585Z,2.40
2018-02-12T05:41:47.037Z,2.40
2018-02-12T05:44:16.018Z,2.40
2018-02-12T05:46:43.495Z,2.40
2018-02-12T05:49:11.420Z,2.40
2018-02-12T05:51:39.548Z,2.30
2018-02-12T05:54:08.254Z,2.30
2018-02-12T05:56:35.702Z,2.20
2018-02-12T05:59:03.945Z,2.10
2018-02-12T06:01:31.506Z,2.10
2018-02-12T06:03:59.117Z,2.20
2018-02-12T06:06:26.574Z,2.20
2018-02-12T06:08:54.050Z,2.30
2018-02-12T06:11:22.271Z,2.40
2018-02-12T06:13:50.450Z,2.50
2018-02-12T06:16:18.736Z,2.50
2018-02-12T06:18:46.189Z,2.50
2018-02-12T06:21:13.645Z,2.40
2018-02-12T06:23:41.162Z,2.40
2018-02-12T06:26:08.614Z,2.40
2018-02-12T06:28:36.094Z,2.40
2018-02-12T06:31:04.350Z,2.30
2018-02-12T06:33:31.801Z,2.30
2018-02-12T06:35:59.274Z,2.30
2018-02-12T06:38:26.757Z,2.30
2018-02-12T06:40:54.986Z,2.40
2018-02-12T06:43:22.481Z,2.40
2018-02-12T06:45:50.082Z,2.50
2018-02-12T06:48:18.299Z,2.50
2018-02-12T06:50:47.303Z,2.50
2018-02-12T06:53:15.556Z,2.50
2018-02-12T06:55:43.014Z,2.50
2018-02-12T06:58:11.247Z,2.50
2018-02-12T07:00:38.770Z,2.50
2018-02-12T07:03:06.990Z,2.40
2018-02-12T07:05:34.452Z,2.40
2018-02-12T07:08:01.956Z,2.40
2018-02-12T07:10:29.414Z,2.40
2018-02-12T07:12:57.065Z,2.40
2018-02-12T07:15:24.542Z,2.40
2018-02-12T07:17:52.768Z,2.30
2018-02-12T07:20:20.235Z,2.30
2018-02-12T07:22:47.734Z,2.40
2018-02-12T07:25:15.954Z,2.40
2018-02-12T07:27:43.438Z,2.40
2018-02-12T07:30:11.283Z,2.40
2018-02-12T07:32:38.738Z,2.40
2018-02-12T07:35:06.214Z,2.40
2018-02-12T07:37:33.698Z,2.40
2018-02-12T07:40:01.926Z,2.40
2018-02-12T07:42:29.390Z,2.40
2018-02-12T07:44:56.881Z,2.30
2018-02-12T07:47:25.110Z,2.30
2018-02-12T07:49:52.562Z,2.30
2018-02-12T07:52:20.050Z,2.30
2018-02-12T07:54:47.502Z,2.30
2018-02-12T07:57:14.965Z,2.30
2018-02-12T07:59:42.440Z,2.30
2018-02-12T08:02:10.667Z,2.20
2018-02-12T08:04:38.160Z,2.20
2018-02-12T08:07:05.597Z,2.20
2018-02-12T08:09:33.071Z,2.20
2018-02-12T08:12:00.566Z,2.20
2018-02-12T08:14:28.055Z,2.20
2018-02-12T08:16:55.508Z,2.20
2018-02-12T08:19:22.986Z,2.20
2018-02-12T08:21:51.215Z,2.20
2018-02-12T08:24:18.726Z,2.20
2018-02-12T08:26:46.190Z,2.30
2018-02-12T08:29:13.672Z,2.50
2018-02-12T08:31:41.906Z,2.70
2018-02-12T08:34:09.367Z,2.70
2018-02-12T08:43:22.441Z,2.60
2018-02-12T08:45:49.907Z,2.50
2018-02-12T08:48:17.363Z,2.60
2018-02-12T08:50:44.854Z,2.80
2018-02-12T08:53:12.325Z,2.90
2018-02-12T08:55:39.782Z,3.10
2018-02-12T08:58:07.270Z,3.20
2018-02-12T09:00:34.778Z,3.30
2018-02-12T09:03:02.203Z,3.40
2018-02-12T09:05:30.454Z,3.70
2018-02-12T09:07:57.951Z,3.70
2018-02-12T09:10:26.185Z,3.80
2018-02-12T09:12:53.666Z,3.80
2018-02-12T09:15:21.135Z,3.90
2018-02-12T09:17:49.358Z,4.10
2018-02-12T09:20:16.834Z,4.00
2018-02-12T09:22:44.298Z,4.10
2018-02-12T09:25:11.779Z,4.10
2018-02-12T09:27:39.250Z,4.10
2018-02-12T09:30:07.465Z,4.30
2018-02-12T09:32:34.917Z,4.30
2018-02-12T09:35:02.396Z,4.30
2018-02-12T09:37:29.855Z,4.50
2018-02-12T09:39:57.310Z,4.60
2018-02-12T09:42:24.803Z,4.70
2018-02-12T09:44:53.109Z,4.70
2018-02-12T09:47:21.558Z,4.70
2018-02-12T09:49:49.789Z,4.90
2018-02-12T09:52:17.322Z,4.90
2018-02-12T09:54:44.770Z,5.00
2018-02-12T09:57:12.245Z,5.00
2018-02-12T09:59:39.699Z,5.00
2018-02-12T10:02:07.161Z,5.10
2018-02-12T10:04:34.638Z,5.20
2018-02-12T10:07:02.114Z,5.30
2018-02-12T10:09:29.978Z,5.40
2018-02-12T10:11:57.446Z,5.40
2018-02-12T10:14:24.904Z,5.50
2018-02-12T10:16:53.126Z,5.60
2018-02-12T10:19:21.215Z,5.50
2018-02-12T10:21:49.457Z,5.70
2018-02-12T10:24:16.921Z,5.60
2018-02-12T10:26:45.225Z,5.50
2018-02-12T10:29:12.693Z,5.70
2018-02-12T10:31:40.162Z,5.80
2018-02-12T10:34:07.629Z,6.10
2018-02-12T10:36:35.854Z,5.80
2018-02-12T10:39:03.342Z,5.80
2018-02-12T10:41:30.821Z,5.80
2018-02-12T10:43:59.038Z,5.90
2018-02-12T10:46:26.500Z,5.90
2018-02-12T10:48:53.990Z,6.00
2018-02-12T10:51:21.442Z,6.30
2018-02-12T10:53:50.400Z,6.50
2018-02-12T10:56:17.878Z,6.50
2018-02-12T10:58:45.350Z,6.50
2018-02-12T11:01:12.819Z,6.50
2018-02-12T11:03:40.373Z,6.50
2018-02-12T11:06:07.938Z,6.60
2018-02-12T11:08:35.400Z,6.70
2018-02-12T11:11:03.646Z,6.80
2018-02-12T11:13:31.102Z,6.80
2018-02-12T11:15:58.562Z,6.90
2018-02-12T11:18:26.056Z,6.80
2018-02-12T11:20:54.266Z,6.50
2018-02-12T11:23:21.718Z,6.50
2018-02-12T11:25:49.273Z,6.30
2018-02-12T11:28:16.709Z,6.30
2018-02-12T11:30:44.166Z,6.30
2018-02-12T11:33:11.643Z,6.10
2018-02-12T11:35:39.099Z,6.20
2018-02-12T11:38:07.326Z,5.80
2018-02-12T11:40:34.798Z,5.70
2018-02-12T11:43:03.013Z,5.90
2018-02-12T11:45:31.570Z,5.90
2018-02-12T11:47:59.046Z,5.70
2018-02-12T11:50:26.613Z,5.50
2018-02-12T11:52:54.086Z,5.70
2018-02-12T11:55:21.565Z,5.90
2018-02-12T11:57:49.092Z,6.20
2018-02-12T12:00:17.284Z,6.80
2018-02-12T12:02:44.754Z,6.80
2018-02-12T12:05:12.217Z,6.70
2018-02-12T12:07:40.466Z,7.10
2018-02-12T12:10:07.938Z,7.10
2018-02-12T12:12:35.404Z,7.10
2018-02-12T12:15:02.850Z,7.00
2018-02-12T12:17:31.295Z,6.40
2018-02-12T12:19:58.760Z,6.10
2018-02-12T12:22:26.223Z,5.70
2018-02-12T12:24:53.694Z,5.80
2018-02-12T12:27:21.142Z,6.00
2018-02-12T12:29:48.597Z,6.30
2018-02-12T12:32:16.073Z,6.30
2018-02-12T12:34:43.539Z,6.70
2018-02-12T12:37:11.044Z,6.70
2018-02-12T12:39:38.522Z,6.80
2018-02-12T12:42:05.982Z,6.60
2018-02-12T12:44:33.513Z,6.10
2018-02-12T12:47:00.978Z,5.90
2018-02-12T12:49:29.189Z,5.90
2018-02-12T12:51:56.642Z,5.90
2018-02-12T12:54:24.163Z,5.80
2018-02-12T12:56:51.580Z,5.80
2018-02-12T12:59:19.894Z,6.10
2018-02-12T13:01:47.366Z,6.00
2018-02-12T13:04:14.810Z,6.20
2018-02-12T13:06:43.037Z,6.70
2018-02-12T13:09:10.585Z,6.70
2018-02-12T13:11:38.051Z,6.60
2018-02-12T13:14:05.510Z,6.30
2018-02-12T13:16:33.770Z,6.70
2018-02-12T13:19:01.223Z,6.70
2018-02-12T13:21:28.690Z,6.50
2018-02-12T13:23:56.298Z,6.50
2018-02-12T13:26:23.763Z,6.30
2018-02-12T13:28:51.221Z,6.30
2018-02-12T13:31:18.695Z,6.70
2018-02-12T13:33:46.162Z,7.10
2018-02-12T13:36:13.610Z,6.90
2018-02-12T13:38:41.085Z,6.60
2018-02-12T13:41:08.599Z,6.20
2018-02-12T13:43:36.058Z,6.30
2018-02-12T13:46:03.544Z,6.40
2018-02-12T13:48:30.999Z,6.40
2018-02-12T13:50:58.454Z,6.30
2018-02-12T13:53:25.926Z,6.20
2018-02-12T13:55:53.382Z,6.30
2018-02-12T13:58:20.852Z,6.20
2018-02-12T14:00:48.330Z,6.00
2018-02-12T14:03:15.779Z,6.00
2018-02-12T14:05:43.989Z,6.10
2018-02-12T14:08:11.479Z,6.00
2018-02-12T14:10:38.926Z,5.90
2018-02-12T14:13:06.387Z,5.80
2018-02-12T14:15:33.859Z,6.10
2018-02-12T14:18:01.309Z,6.10
2018-02-12T14:20:28.769Z,6.20
2018-02-12T14:22:56.238Z,6.00
2018-02-12T14:25:24.467Z,5.80
2018-02-12T14:27:51.917Z,5.80
2018-02-12T14:30:19.426Z,5.60
2018-02-12T14:32:47.645Z,5.50
2018-02-12T14:35:15.110Z,5.50
2018-02-12T14:37:43.348Z,5.20
2018-02-12T14:40:11.579Z,5.20
2018-02-12T14:42:39.031Z,5.10
2018-02-12T14:45:06.510Z,5.20
2018-02-12T14:47:33.993Z,5.10
2018-02-12T14:50:01.427Z,5.30
2018-02-12T14:52:28.899Z,5.60
2018-02-12T14:54:57.125Z,5.70
2018-02-12T14:57:24.571Z,5.70
2018-02-12T14:59:52.062Z,5.50
2018-02-12T15:02:19.518Z,5.40
2018-02-12T15:04:46.967Z,5.60
2018-02-12T15:07:14.458Z,5.60
2018-02-12T15:09:42.679Z,5.60
2018-02-12T15:12:10.140Z,5.60
2018-02-12T15:14:37.627Z,5.50
2018-02-12T15:17:05.081Z,5.30
2018-02-12T15:19:32.593Z,5.30
2018-02-12T15:22:00.123Z,5.30
2018-02-12T15:24:28.352Z,5.00
2018-02-12T15:26:56.654Z,4.80
2018-02-12T15:29:24.134Z,4.80
2018-02-12T15:31:52.360Z,4.70
2018-02-12T15:34:19.874Z,4.70
2018-02-12T15:36:48.111Z,4.60
2018-02-12T15:39:15.567Z,4.60
2018-02-12T15:41:43.030Z,4.60
2018-02-12T15:44:10.514Z,4.60
2018-02-12T15:46:38.747Z,4.70
2018-02-12T15:49:06.218Z,4.70
2018-02-12T15:51:33.690Z,4.90
2018-02-12T15:54:01.957Z,5.40
2018-02-12T15:56:29.412Z,5.40
2018-02-12T15:58:56.898Z,5.60
2018-02-12T16:01:24.375Z,5.60
2018-02-12T16:03:51.890Z,5.50
2018-02-12T16:06:20.274Z,5.10
2018-02-12T16:08:48.498Z,5.00
2018-02-12T16:11:15.961Z,5.00
2018-02-12T16:13:43.466Z,4.90
2018-02-12T16:16:11.693Z,4.80
2018-02-12T16:18:39.138Z,4.80
2018-02-12T16:21:06.614Z,4.70
2018-02-12T16:23:34.830Z,4.50
2018-02-12T16:26:03.051Z,4.50
2018-02-12T16:28:30.557Z,4.50
2018-02-12T16:30:58.800Z,4.40
2018-02-12T16:33:26.281Z,4.40
2018-02-12T16:35:53.777Z,4.40
2018-02-12T16:38:21.239Z,4.40
2018-02-12T16:40:48.695Z,4.30
2018-02-12T16:43:16.185Z,4.30
2018-02-12T16:45:43.633Z,4.30
2018-02-12T16:48:11.095Z,4.20
2018-02-12T16:50:38.591Z,4.20
2018-02-12T16:53:06.806Z,4.10
2018-02-12T16:55:34.270Z,4.00
2018-02-12T16:58:01.749Z,4.00
2018-02-12T17:00:29.237Z,3.90
2018-02-12T17:02:57.466Z,3.90
2018-02-12T17:05:24.938Z,3.90
2018-02-12T17:07:52.395Z,3.80
2018-02-12T17:10:19.931Z,3.70
2018-02-12T17:12:47.418Z,3.70
2018-02-12T17:15:14.895Z,3.60
2018-02-12T17:17:43.147Z,3.50
2018-02-12T17:20:10.638Z,3.50
2018-02-12T17:22:38.874Z,3.40
2018-02-12T17:25:06.352Z,3.40
2018-02-12T17:27:33.817Z,3.30
2018-02-12T17:30:02.165Z,3.20
2018-02-12T17:32:29.654Z,3.20
2018-02-12T17:34:57.872Z,3.20
2018-02-12T17:37:25.366Z,3.20
2018-02-12T17:39:52.822Z,3.20
2018-02-12T17:42:20.314Z,3.20
2018-02-12T17:44:47.858Z,3.10
2018-02-12T17:47:16.106Z,3.00
2018-02-12T17:49:43.570Z,3.00
2018-02-12T17:52:11.475Z,3.00
2018-02-12T17:54:39.045Z,3.00
2018-02-12T17:57:07.251Z,3.00
2018-02-12T17:59:34.736Z,3.00
2018-02-12T18:02:02.966Z,3.10
2018-02-12T18:04:31.234Z,3.10
2018-02-12T18:06:58.738Z,3.10
2018-02-12T18:09:26.201Z,3.10
2018-02-12T18:11:54.437Z,3.00
2018-02-12T18:14:22.757Z,3.00
2018-02-12T18:16:51.023Z,3.10
2018-02-12T18:19:18.500Z,3.10
2018-02-12T18:21:45.987Z,3.10
2018-02-12T18:24:13.444Z,3.10
2018-02-12T18:26:41.492Z,3.00
2018-02-12T18:29:08.957Z,3.00
2018-02-12T18:31:36.432Z,3.00
2018-02-12T18:34:03.909Z,3.00
2018-02-12T18:36:31.426Z,3.00
2018-02-12T18:38:58.913Z,3.00
2018-02-12T18:41:26.399Z,3.00
2018-02-12T18:43:53.922Z,3.00
2018-02-12T18:46:21.418Z,3.00
2018-02-12T18:48:48.897Z,3.00
2018-02-12T18:51:16.361Z,3.00
2018-02-12T18:53:43.842Z,2.90
2018-02-12T18:56:11.326Z,2.90
2018-02-12T18:58:38.787Z,2.90
2018-02-12T19:01:06.278Z,2.90
2018-02-12T19:03:34.532Z,2.90
2018-02-12T19:06:01.994Z,2.80
2018-02-12T19:08:29.533Z,2.80
2018-02-12T19:10:56.998Z,2.80
2018-02-12T19:13:24.469Z,2.70
2018-02-12T19:15:51.964Z,2.70
2018-02-12T19:18:19.458Z,2.70
2018-02-12T19:20:46.939Z,2.70
2018-02-12T19:23:14.463Z,2.70
2018-02-12T19:25:42.674Z,2.60
2018-02-12T19:28:10.465Z,2.60
2018-02-12T19:30:37.924Z,2.70
2018-02-12T19:33:05.408Z,2.60
2018-02-12T19:35:33.117Z,2.60
2018-02-12T19:38:00.594Z,2.60
2018-02-12T19:40:28.108Z,2.60
2018-02-12T19:42:55.582Z,2.60
2018-02-12T19:45:23.058Z,2.60
2018-02-12T19:47:52.349Z,2.70
2018-02-12T19:50:20.603Z,2.80
2018-02-12T19:52:48.058Z,2.80
2018-02-12T19:55:15.687Z,2.80
2018-02-12T19:57:43.156Z,2.70
2018-02-12T20:00:10.639Z,2.70
2018-02-12T20:02:38.124Z,2.70
2018-02-12T20:05:06.363Z,2.60
2018-02-12T20:07:33.878Z,2.60
2018-02-12T20:10:01.364Z,2.70
2018-02-12T20:12:28.870Z,2.70
2018-02-12T20:14:57.182Z,2.60
2018-02-12T20:17:24.658Z,2.60
2018-02-12T20:19:52.139Z,2.60
2018-02-12T20:22:19.610Z,2.50
2018-02-12T20:24:47.878Z,2.50
2018-02-12T20:27:15.336Z,2.50
2018-02-12T20:29:43.558Z,2.40
2018-02-12T20:32:11.052Z,2.40
2018-02-12T20:34:38.535Z,2.50
2018-02-12T20:37:06.778Z,2.30
2018-02-12T20:39:34.249Z,2.30
2018-02-12T20:42:01.711Z,2.30
2018-02-12T20:44:29.195Z,2.20
2018-02-12T20:46:56.670Z,2.10
2018-02-12T20:49:24.139Z,2.10
2018-02-12T20:52:02.792Z,2.10
2018-02-12T20:54:31.237Z,2.00
2018-02-12T20:56:58.768Z,2.00
2018-02-12T20:59:26.226Z,2.00
2018-02-12T21:01:53.691Z,2.00
2018-02-12T21:04:21.170Z,2.00
2018-02-12T21:06:48.717Z,1.90
2018-02-12T21:09:16.204Z,1.90
2018-02-12T21:11:44.406Z,1.90
2018-02-12T21:14:12.690Z,1.80
2018-02-12T21:16:40.178Z,1.80
2018-02-12T21:19:07.713Z,1.90
2018-02-12T21:21:35.169Z,1.90
2018-02-12T21:24:02.637Z,2.00
2018-02-12T21:26:30.140Z,2.00
2018-02-12T21:28:57.619Z,2.00
2018-02-12T21:31:25.127Z,2.00
2018-02-12T21:33:52.617Z,2.00
2018-02-12T21:36:20.091Z,2.00
2018-02-12T21:38:48.345Z,2.00
2018-02-12T21:41:15.831Z,2.00
2018-02-12T21:43:44.075Z,1.90
2018-02-12T21:46:11.547Z,1.90
2018-02-12T21:48:39.018Z,1.90
2018-02-12T21:51:07.238Z,1.80
2018-02-12T21:53:34.718Z,1.80
2018-02-12T21:56:02.963Z,1.70
2018-02-12T21:58:30.426Z,1.60
2018-02-12T22:00:57.890Z,1.60
2018-02-12T22:03:25.374Z,1.60
2018-02-12T22:05:52.833Z,1.60
2018-02-12T22:08:20.298Z,1.50
2018-02-12T22:10:47.775Z,1.50
2018-02-12T22:13:16.014Z,1.50
2018-02-12T22:15:43.481Z,1.50
2018-02-12T22:18:11.018Z,1.60
2018-02-12T22:20:38.475Z,1.50
2018-02-12T22:23:05.930Z,1.50
2018-02-12T22:25:33.447Z,1.50
2018-02-12T22:28:01.354Z,1.60
2018-02-12T22:30:28.825Z,1.60
2018-02-12T22:32:56.313Z,1.60
2018-02-12T22:35:24.554Z,1.60
2018-02-12T22:37:52.070Z,1.50
2018-02-12T22:40:19.502Z,1.50
2018-02-12T22:42:47.783Z,1.50
2018-02-12T22:45:16.022Z,1.60
2018-02-12T22:47:43.489Z,1.50
2018-02-12T22:50:10.950Z,1.60
2018-02-12T22:52:38.414Z,1.60
2018-02-12T22:55:06.660Z,1.70
2018-02-12T22:57:34.198Z,1.70
2018-02-12T23:00:01.672Z,1.70
2018-02-12T23:02:29.146Z,1.70
2018-02-12T23:04:56.606Z,1.70
2018-02-12T23:07:24.067Z,1.70
2018-02-12T23:09:51.538Z,1.70
2018-02-12T23:12:19.771Z,1.70
2018-02-12T23:14:47.245Z,1.70
2018-02-12T23:17:15.502Z,1.70
2018-02-12T23:19:42.974Z,1.80
2018-02-12T23:22:10.422Z,1.80
2018-02-12T23:24:37.902Z,1.70
2018-02-12T23:27:05.371Z,1.70
2018-02-12T23:29:33.626Z,1.70
2018-02-12T23:32:01.102Z,1.70
2018-02-12T23:34:29.333Z,1.60
2018-02-12T23:36:56.790Z,1.60
2018-02-12T23:39:24.500Z,1.60
2018-02-12T23:41:52.722Z,1.50
2018-02-12T23:44:20.218Z,1.40
2018-02-12T23:46:47.682Z,1.50
2018-02-12T23:49:15.919Z,1.40
2018-02-12T23:51:43.378Z,1.40
2018-02-12T23:54:25.737Z,1.40
2018-02-12T23:56:53.220Z,1.30
2018-02-12T23:59:20.683Z,1.40
